Airfield :
LOGIN :

Register | Disclaimer

   EN    FR    IT 

 










Legend :    VFR   Marginal VFR   IFR   Intensive IFR   Very Intensive IFR
Visi :
Ceiling :
>= 8 km
>= 3000ft
5 to 8 km
1000 to 3000 ft
1500m to 5 km
500 to 1000 ft
800 to 1500m
200 to 500 ft
< 800m
< 200 ft
Symbols :   Thunderstorms  Fog  Heavy snow  Heavy precipitations  Wind > 20 kt
SIGMETs :     Misc.  Thunderstorms  Icing  Turbulence  Mountain Waves  Volcanic Ashes







- Airport Elevation : 1090 ft
- IATA code : CFE
- Download approach charts


LFLC - Clermont-Ferrand Auvergne

CURRENT METAR :
  • 112100Z AUTO 00000KT 0700 0500 R26/0600N R08/0800N FG VV/// 02/01 Q1022 BECMG 8000 NSW BKN008

EXPIRED METARs :
  • 112030Z AUTO 03003KT 0650 0450 R26/0550N R08/1400D FG VV/// 02/01 Q1022 BECMG 8000 NSW BKN008
  • 112000Z AUTO 05004KT 360V070 8000 0900 R26/1500D R08/P2400 BCFG VV/// 02/01 Q1022 TEMPO 3000 BR OVC005
  • 111930Z AUTO 00000KT 9999 BKN007 BKN011 01/M01 Q1022 TEMPO 3000 BR
  • 111900Z AUTO 00000KT 9999 BKN009 01/M01 Q1022 TEMPO 3000 BR
  • 111830Z AUTO VRB02KT 9999 FEW011 01/M01 Q1022 TEMPO 3000 BR OVC005
  • 111800Z AUTO 00000KT 9999 FEW015 01/M01 Q1022 TEMPO 3000 BR OVC005

TAF TAF LFLC
Valid from the 11 at 21:00 until the 12 at 21:00 UTC


112000Z 1121/1221 VRB03KT 8000 BKN008
TEMPO 1200/1209 4000 BR BKN004
BECMG 1210/1212 CAVOK
ATIS : +33 4 73 62 74 38
No reported NOTAMs for that airfield.



MET'MAP, your aeronautical weather chart ! - Copyright ORBIFLY December 2007 - Disclaimer

ORBIFLY MET'MAP TEAM :

Programming & Development : Alexandra Zaïnal
Concept & Development : Baudouin d'Aumeries
Co-Development & Prog : Marc-Olivier Méhu
Technical & hardware support : Manuel Goepfert

Contact : metmap@orbifly.com




SOURCES & CREDITS :

   NOAA